sensor_id;sensor_type;location;lat;lon;timestamp;P1;durP1;ratioP1;P2;durP2;ratioP2
46090;SDS011;31826;53.572;10.170;2022-12-08T00:00:53;22.67;;;10.07;;
46090;SDS011;31826;53.572;10.170;2022-12-08T00:03:18;21.43;;;9.80;;
46090;SDS011;31826;53.572;10.170;2022-12-08T00:05:45;23.33;;;10.47;;
46090;SDS011;31826;53.572;10.170;2022-12-08T00:08:30;23.87;;;10.23;;
46090;SDS011;31826;53.572;10.170;2022-12-08T00:11:15;24.75;;;10.88;;
46090;SDS011;31826;53.572;10.170;2022-12-08T00:13:42;26.50;;;11.27;;
46090;SDS011;31826;53.572;10.170;2022-12-08T00:16:08;24.90;;;10.48;;
46090;SDS011;31826;53.572;10.170;2022-12-08T00:18:34;28.65;;;11.80;;
46090;SDS011;31826;53.572;10.170;2022-12-08T00:21:00;26.05;;;11.60;;
46090;SDS011;31826;53.572;10.170;2022-12-08T00:23:26;25.00;;;11.20;;
46090;SDS011;31826;53.572;10.170;2022-12-08T00:25:52;27.33;;;11.52;;
46090;SDS011;31826;53.572;10.170;2022-12-08T00:28:17;25.67;;;10.63;;
46090;SDS011;31826;53.572;10.170;2022-12-08T00:30:43;30.23;;;12.47;;
46090;SDS011;31826;53.572;10.170;2022-12-08T00:33:09;31.03;;;12.73;;
46090;SDS011;31826;53.572;10.170;2022-12-08T00:35:35;28.60;;;12.13;;
46090;SDS011;31826;53.572;10.170;2022-12-08T00:38:01;29.47;;;12.50;;
46090;SDS011;31826;53.572;10.170;2022-12-08T00:40:27;30.25;;;12.43;;
46090;SDS011;31826;53.572;10.170;2022-12-08T00:42:53;28.45;;;11.82;;
46090;SDS011;31826;53.572;10.170;2022-12-08T00:45:19;29.08;;;12.20;;
46090;SDS011;31826;53.572;10.170;2022-12-08T00:47:45;31.30;;;12.93;;
46090;SDS011;31826;53.572;10.170;2022-12-08T00:50:11;31.03;;;12.60;;
46090;SDS011;31826;53.572;10.170;2022-12-08T00:52:36;31.95;;;12.95;;
46090;SDS011;31826;53.572;10.170;2022-12-08T00:55:02;30.97;;;12.53;;
46090;SDS011;31826;53.572;10.170;2022-12-08T00:57:29;27.65;;;12.00;;
46090;SDS011;31826;53.572;10.170;2022-12-08T00:59:55;32.30;;;13.23;;
46090;SDS011;31826;53.572;10.170;2022-12-08T01:02:21;33.40;;;13.38;;
46090;SDS011;31826;53.572;10.170;2022-12-08T01:04:47;31.33;;;13.23;;
46090;SDS011;31826;53.572;10.170;2022-12-08T01:07:13;29.63;;;12.70;;
46090;SDS011;31826;53.572;10.170;2022-12-08T01:09:38;32.23;;;12.97;;
46090;SDS011;31826;53.572;10.170;2022-12-08T01:12:05;32.47;;;13.30;;
46090;SDS011;31826;53.572;10.170;2022-12-08T01:14:31;29.83;;;13.03;;
46090;SDS011;31826;53.572;10.170;2022-12-08T01:16:57;27.60;;;13.13;;
46090;SDS011;31826;53.572;10.170;2022-12-08T01:19:22;29.77;;;12.80;;
46090;SDS011;31826;53.572;10.170;2022-12-08T01:21:48;27.23;;;11.88;;
46090;SDS011;31826;53.572;10.170;2022-12-08T01:24:15;29.48;;;12.68;;
46090;SDS011;31826;53.572;10.170;2022-12-08T01:26:43;30.90;;;13.33;;
46090;SDS011;31826;53.572;10.170;2022-12-08T01:29:09;29.05;;;12.73;;
46090;SDS011;31826;53.572;10.170;2022-12-08T01:31:35;28.42;;;12.55;;
46090;SDS011;31826;53.572;10.170;2022-12-08T01:34:01;27.33;;;12.15;;
46090;SDS011;31826;53.572;10.170;2022-12-08T01:36:28;26.55;;;12.38;;
46090;SDS011;31826;53.572;10.170;2022-12-08T01:38:55;31.20;;;12.40;;
46090;SDS011;31826;53.572;10.170;2022-12-08T01:41:24;27.85;;;11.80;;
46090;SDS011;31826;53.572;10.170;2022-12-08T01:46:36;24.30;;;11.38;;
46090;SDS011;31826;53.572;10.170;2022-12-08T01:49:12;24.73;;;11.57;;
46090;SDS011;31826;53.572;10.170;2022-12-08T01:51:54;25.60;;;11.07;;
46090;SDS011;31826;53.572;10.170;2022-12-08T01:54:22;24.38;;;11.20;;
46090;SDS011;31826;53.572;10.170;2022-12-08T01:56:59;25.13;;;11.57;;
46090;SDS011;31826;53.572;10.170;2022-12-08T01:59:40;22.55;;;10.60;;
46090;SDS011;31826;53.572;10.170;2022-12-08T02:02:10;23.45;;;11.00;;
46090;SDS011;31826;53.572;10.170;2022-12-08T02:04:36;20.63;;;9.20;;
46090;SDS011;31826;53.572;10.170;2022-12-08T02:07:03;20.27;;;10.25;;
46090;SDS011;31826;53.572;10.170;2022-12-08T02:09:30;20.93;;;10.57;;
46090;SDS011;31826;53.572;10.170;2022-12-08T02:11:56;24.23;;;10.20;;
46090;SDS011;31826;53.572;10.170;2022-12-08T02:14:23;20.23;;;9.85;;
46090;SDS011;31826;53.572;10.170;2022-12-08T02:17:04;19.23;;;8.95;;
46090;SDS011;31826;53.572;10.170;2022-12-08T02:28:37;16.05;;;7.18;;
46090;SDS011;31826;53.572;10.170;2022-12-08T02:47:33;19.15;;;8.68;;
46090;SDS011;31826;53.572;10.170;2022-12-08T02:50:00;16.52;;;8.13;;
46090;SDS011;31826;53.572;10.170;2022-12-08T02:54:56;20.33;;;9.70;;
46090;SDS011;31826;53.572;10.170;2022-12-08T02:57:31;20.08;;;9.20;;
46090;SDS011;31826;53.572;10.170;2022-12-08T03:02:34;19.58;;;10.13;;
46090;SDS011;31826;53.572;10.170;2022-12-08T03:05:18;20.38;;;9.70;;
46090;SDS011;31826;53.572;10.170;2022-12-08T03:07:52;21.27;;;9.60;;
46090;SDS011;31826;53.572;10.170;2022-12-08T03:10:35;19.88;;;9.10;;
46090;SDS011;31826;53.572;10.170;2022-12-08T03:13:08;18.58;;;8.57;;
46090;SDS011;31826;53.572;10.170;2022-12-08T03:15:38;19.07;;;8.67;;
46090;SDS011;31826;53.572;10.170;2022-12-08T03:18:06;19.92;;;8.77;;
46090;SDS011;31826;53.572;10.170;2022-12-08T03:20:34;17.15;;;8.57;;
46090;SDS011;31826;53.572;10.170;2022-12-08T03:23:02;17.73;;;8.95;;
46090;SDS011;31826;53.572;10.170;2022-12-08T03:25:32;19.23;;;8.70;;
46090;SDS011;31826;53.572;10.170;2022-12-08T03:28:03;19.30;;;8.48;;
46090;SDS011;31826;53.572;10.170;2022-12-08T03:30:30;16.97;;;8.30;;
46090;SDS011;31826;53.572;10.170;2022-12-08T03:33:10;17.63;;;7.90;;
46090;SDS011;31826;53.572;10.170;2022-12-08T03:35:42;16.42;;;6.93;;
46090;SDS011;31826;53.572;10.170;2022-12-08T03:38:10;13.77;;;6.07;;
46090;SDS011;31826;53.572;10.170;2022-12-08T03:40:38;13.23;;;5.53;;
46090;SDS011;31826;53.572;10.170;2022-12-08T03:43:04;11.95;;;5.43;;
46090;SDS011;31826;53.572;10.170;2022-12-08T03:45:29;12.87;;;5.07;;
46090;SDS011;31826;53.572;10.170;2022-12-08T03:47:55;11.07;;;5.50;;
46090;SDS011;31826;53.572;10.170;2022-12-08T03:50:21;10.23;;;4.77;;
46090;SDS011;31826;53.572;10.170;2022-12-08T03:52:47;10.40;;;4.85;;
46090;SDS011;31826;53.572;10.170;2022-12-08T03:55:13;10.73;;;4.43;;
46090;SDS011;31826;53.572;10.170;2022-12-08T03:57:39;9.55;;;4.40;;
46090;SDS011;31826;53.572;10.170;2022-12-08T04:00:05;9.57;;;4.60;;
46090;SDS011;31826;53.572;10.170;2022-12-08T04:02:33;8.02;;;3.90;;
46090;SDS011;31826;53.572;10.170;2022-12-08T04:04:58;9.90;;;4.17;;
46090;SDS011;31826;53.572;10.170;2022-12-08T04:07:24;8.93;;;3.97;;
46090;SDS011;31826;53.572;10.170;2022-12-08T04:09:50;9.70;;;4.13;;
46090;SDS011;31826;53.572;10.170;2022-12-08T04:12:15;10.60;;;3.80;;
46090;SDS011;31826;53.572;10.170;2022-12-08T04:14:41;8.30;;;3.40;;
46090;SDS011;31826;53.572;10.170;2022-12-08T04:17:07;7.20;;;3.37;;
46090;SDS011;31826;53.572;10.170;2022-12-08T04:19:32;10.97;;;3.80;;
46090;SDS011;31826;53.572;10.170;2022-12-08T04:21:58;8.63;;;3.67;;
46090;SDS011;31826;53.572;10.170;2022-12-08T04:24:24;7.83;;;3.80;;
46090;SDS011;31826;53.572;10.170;2022-12-08T04:26:50;10.45;;;3.75;;
46090;SDS011;31826;53.572;10.170;2022-12-08T04:29:15;8.82;;;3.63;;
46090;SDS011;31826;53.572;10.170;2022-12-08T04:31:41;7.90;;;3.97;;
46090;SDS011;31826;53.572;10.170;2022-12-08T04:34:07;7.60;;;3.40;;
46090;SDS011;31826;53.572;10.170;2022-12-08T04:36:33;6.50;;;3.20;;
46090;SDS011;31826;53.572;10.170;2022-12-08T04:38:59;8.15;;;3.30;;
46090;SDS011;31826;53.572;10.170;2022-12-08T04:41:24;8.38;;;3.05;;
46090;SDS011;31826;53.572;10.170;2022-12-08T04:43:50;7.40;;;3.33;;
46090;SDS011;31826;53.572;10.170;2022-12-08T04:46:16;6.05;;;2.88;;
46090;SDS011;31826;53.572;10.170;2022-12-08T04:48:42;6.60;;;3.15;;
46090;SDS011;31826;53.572;10.170;2022-12-08T04:51:12;7.38;;;3.58;;
46090;SDS011;31826;53.572;10.170;2022-12-08T04:53:41;7.93;;;3.22;;
46090;SDS011;31826;53.572;10.170;2022-12-08T04:56:14;7.37;;;3.30;;
46090;SDS011;31826;53.572;10.170;2022-12-08T04:58:42;7.47;;;3.10;;
46090;SDS011;31826;53.572;10.170;2022-12-08T05:01:08;5.72;;;3.00;;
46090;SDS011;31826;53.572;10.170;2022-12-08T05:03:33;8.35;;;3.20;;
46090;SDS011;31826;53.572;10.170;2022-12-08T05:05:59;5.73;;;2.63;;
46090;SDS011;31826;53.572;10.170;2022-12-08T05:08:26;5.35;;;2.65;;
46090;SDS011;31826;53.572;10.170;2022-12-08T05:10:52;4.65;;;2.42;;
46090;SDS011;31826;53.572;10.170;2022-12-08T05:13:18;5.43;;;2.50;;
46090;SDS011;31826;53.572;10.170;2022-12-08T05:15:43;5.78;;;2.67;;
46090;SDS011;31826;53.572;10.170;2022-12-08T05:18:09;6.63;;;3.10;;
46090;SDS011;31826;53.572;10.170;2022-12-08T05:20:35;6.82;;;3.10;;
46090;SDS011;31826;53.572;10.170;2022-12-08T05:23:01;5.07;;;2.50;;
46090;SDS011;31826;53.572;10.170;2022-12-08T05:25:27;7.10;;;3.03;;
46090;SDS011;31826;53.572;10.170;2022-12-08T05:27:53;5.28;;;2.88;;
46090;SDS011;31826;53.572;10.170;2022-12-08T05:30:18;6.32;;;2.75;;
46090;SDS011;31826;53.572;10.170;2022-12-08T05:32:44;7.35;;;2.78;;
46090;SDS011;31826;53.572;10.170;2022-12-08T05:35:10;5.07;;;2.67;;
46090;SDS011;31826;53.572;10.170;2022-12-08T05:37:35;7.50;;;3.37;;
46090;SDS011;31826;53.572;10.170;2022-12-08T05:40:01;9.17;;;3.30;;
46090;SDS011;31826;53.572;10.170;2022-12-08T05:42:28;6.93;;;3.42;;
46090;SDS011;31826;53.572;10.170;2022-12-08T05:44:53;7.90;;;3.40;;
46090;SDS011;31826;53.572;10.170;2022-12-08T05:47:19;6.20;;;3.17;;
46090;SDS011;31826;53.572;10.170;2022-12-08T05:49:45;6.13;;;2.93;;
46090;SDS011;31826;53.572;10.170;2022-12-08T05:52:11;7.00;;;3.63;;
46090;SDS011;31826;53.572;10.170;2022-12-08T05:54:36;7.27;;;3.60;;
46090;SDS011;31826;53.572;10.170;2022-12-08T05:57:02;7.57;;;3.43;;
46090;SDS011;31826;53.572;10.170;2022-12-08T05:59:28;7.53;;;3.20;;
46090;SDS011;31826;53.572;10.170;2022-12-08T06:01:54;9.03;;;3.37;;
46090;SDS011;31826;53.572;10.170;2022-12-08T06:04:19;8.63;;;3.53;;
46090;SDS011;31826;53.572;10.170;2022-12-08T06:06:46;8.52;;;3.78;;
46090;SDS011;31826;53.572;10.170;2022-12-08T06:09:11;5.97;;;3.20;;
46090;SDS011;31826;53.572;10.170;2022-12-08T06:11:37;5.90;;;3.10;;
46090;SDS011;31826;53.572;10.170;2022-12-08T06:14:03;5.60;;;3.00;;
46090;SDS011;31826;53.572;10.170;2022-12-08T06:16:28;6.97;;;3.33;;
46090;SDS011;31826;53.572;10.170;2022-12-08T06:18:54;6.67;;;3.20;;
46090;SDS011;31826;53.572;10.170;2022-12-08T06:21:21;8.13;;;3.47;;
46090;SDS011;31826;53.572;10.170;2022-12-08T06:23:48;7.82;;;3.38;;
46090;SDS011;31826;53.572;10.170;2022-12-08T06:26:14;6.15;;;3.05;;
46090;SDS011;31826;53.572;10.170;2022-12-08T06:28:41;6.70;;;3.23;;
46090;SDS011;31826;53.572;10.170;2022-12-08T06:31:08;6.97;;;3.25;;
46090;SDS011;31826;53.572;10.170;2022-12-08T06:33:36;7.90;;;3.58;;
46090;SDS011;31826;53.572;10.170;2022-12-08T06:36:02;7.10;;;3.33;;
46090;SDS011;31826;53.572;10.170;2022-12-08T06:38:29;7.15;;;3.08;;
46090;SDS011;31826;53.572;10.170;2022-12-08T06:40:55;8.93;;;3.67;;
46090;SDS011;31826;53.572;10.170;2022-12-08T06:43:22;7.15;;;3.58;;
46090;SDS011;31826;53.572;10.170;2022-12-08T06:45:47;6.97;;;3.30;;
46090;SDS011;31826;53.572;10.170;2022-12-08T06:48:13;7.32;;;3.45;;
46090;SDS011;31826;53.572;10.170;2022-12-08T06:50:39;8.05;;;3.50;;
46090;SDS011;31826;53.572;10.170;2022-12-08T06:53:05;7.90;;;3.42;;
46090;SDS011;31826;53.572;10.170;2022-12-08T06:55:31;8.45;;;3.80;;
46090;SDS011;31826;53.572;10.170;2022-12-08T06:57:56;8.15;;;3.63;;
46090;SDS011;31826;53.572;10.170;2022-12-08T07:00:22;6.30;;;3.15;;
46090;SDS011;31826;53.572;10.170;2022-12-08T07:02:48;6.85;;;3.20;;
46090;SDS011;31826;53.572;10.170;2022-12-08T07:05:14;8.35;;;3.33;;
46090;SDS011;31826;53.572;10.170;2022-12-08T07:07:39;6.03;;;2.85;;
46090;SDS011;31826;53.572;10.170;2022-12-08T07:10:05;7.03;;;3.22;;
46090;SDS011;31826;53.572;10.170;2022-12-08T07:12:32;6.82;;;3.25;;
46090;SDS011;31826;53.572;10.170;2022-12-08T07:14:57;7.05;;;3.20;;
46090;SDS011;31826;53.572;10.170;2022-12-08T07:17:23;6.88;;;3.40;;
46090;SDS011;31826;53.572;10.170;2022-12-08T07:19:49;8.63;;;3.47;;
46090;SDS011;31826;53.572;10.170;2022-12-08T07:22:15;6.27;;;3.40;;
46090;SDS011;31826;53.572;10.170;2022-12-08T07:24:40;7.75;;;4.00;;
46090;SDS011;31826;53.572;10.170;2022-12-08T07:27:06;7.45;;;3.60;;
46090;SDS011;31826;53.572;10.170;2022-12-08T07:29:32;6.20;;;3.37;;
46090;SDS011;31826;53.572;10.170;2022-12-08T07:31:58;8.20;;;3.70;;
46090;SDS011;31826;53.572;10.170;2022-12-08T07:34:23;6.50;;;3.20;;
46090;SDS011;31826;53.572;10.170;2022-12-08T07:36:49;8.30;;;3.42;;
46090;SDS011;31826;53.572;10.170;2022-12-08T07:39:15;7.57;;;3.80;;
46090;SDS011;31826;53.572;10.170;2022-12-08T07:41:40;6.97;;;3.35;;
46090;SDS011;31826;53.572;10.170;2022-12-08T07:44:06;9.02;;;4.10;;
46090;SDS011;31826;53.572;10.170;2022-12-08T07:46:33;8.00;;;3.90;;
46090;SDS011;31826;53.572;10.170;2022-12-08T07:48:58;10.88;;;3.85;;
46090;SDS011;31826;53.572;10.170;2022-12-08T07:51:24;9.38;;;4.30;;
46090;SDS011;31826;53.572;10.170;2022-12-08T07:53:50;9.00;;;4.20;;
46090;SDS011;31826;53.572;10.170;2022-12-08T07:56:16;11.77;;;4.85;;
46090;SDS011;31826;53.572;10.170;2022-12-08T07:58:42;11.40;;;5.05;;
46090;SDS011;31826;53.572;10.170;2022-12-08T08:01:19;13.00;;;4.32;;
46090;SDS011;31826;53.572;10.170;2022-12-08T08:03:49;19.85;;;9.18;;
46090;SDS011;31826;53.572;10.170;2022-12-08T08:06:15;13.48;;;5.45;;
46090;SDS011;31826;53.572;10.170;2022-12-08T08:08:41;12.35;;;5.40;;
46090;SDS011;31826;53.572;10.170;2022-12-08T08:11:07;11.52;;;5.50;;
46090;SDS011;31826;53.572;10.170;2022-12-08T08:13:33;10.37;;;4.90;;
46090;SDS011;31826;53.572;10.170;2022-12-08T08:16:05;10.60;;;4.77;;
46090;SDS011;31826;53.572;10.170;2022-12-08T08:18:33;10.10;;;4.87;;
46090;SDS011;31826;53.572;10.170;2022-12-08T08:21:00;12.40;;;5.22;;
46090;SDS011;31826;53.572;10.170;2022-12-08T08:23:26;11.67;;;4.90;;
46090;SDS011;31826;53.572;10.170;2022-12-08T08:25:52;11.80;;;5.32;;
46090;SDS011;31826;53.572;10.170;2022-12-08T08:28:18;12.95;;;5.07;;
46090;SDS011;31826;53.572;10.170;2022-12-08T08:30:44;11.13;;;5.00;;
46090;SDS011;31826;53.572;10.170;2022-12-08T08:33:10;10.73;;;4.75;;
46090;SDS011;31826;53.572;10.170;2022-12-08T08:35:36;11.07;;;5.03;;
46090;SDS011;31826;53.572;10.170;2022-12-08T08:38:02;10.57;;;5.40;;
46090;SDS011;31826;53.572;10.170;2022-12-08T08:40:28;13.20;;;6.93;;
46090;SDS011;31826;53.572;10.170;2022-12-08T08:42:53;12.48;;;5.90;;
46090;SDS011;31826;53.572;10.170;2022-12-08T08:45:19;13.13;;;5.35;;
46090;SDS011;31826;53.572;10.170;2022-12-08T08:47:45;11.00;;;5.30;;
46090;SDS011;31826;53.572;10.170;2022-12-08T08:50:11;14.35;;;7.15;;
46090;SDS011;31826;53.572;10.170;2022-12-08T08:52:36;23.30;;;11.75;;
46090;SDS011;31826;53.572;10.170;2022-12-08T08:55:02;17.88;;;8.88;;
46090;SDS011;31826;53.572;10.170;2022-12-08T08:57:28;14.73;;;7.28;;
46090;SDS011;31826;53.572;10.170;2022-12-08T08:59:54;12.75;;;5.53;;
46090;SDS011;31826;53.572;10.170;2022-12-08T09:02:19;11.32;;;6.07;;
46090;SDS011;31826;53.572;10.170;2022-12-08T09:04:45;14.68;;;7.00;;
46090;SDS011;31826;53.572;10.170;2022-12-08T09:07:11;12.45;;;6.35;;
46090;SDS011;31826;53.572;10.170;2022-12-08T09:09:38;12.75;;;6.40;;
46090;SDS011;31826;53.572;10.170;2022-12-08T09:12:04;15.27;;;7.50;;
46090;SDS011;31826;53.572;10.170;2022-12-08T09:14:30;12.40;;;5.63;;
46090;SDS011;31826;53.572;10.170;2022-12-08T09:16:56;12.20;;;6.60;;
46090;SDS011;31826;53.572;10.170;2022-12-08T09:19:22;11.33;;;5.40;;
46090;SDS011;31826;53.572;10.170;2022-12-08T09:21:48;11.87;;;4.93;;
46090;SDS011;31826;53.572;10.170;2022-12-08T09:24:13;9.93;;;4.80;;
46090;SDS011;31826;53.572;10.170;2022-12-08T09:26:42;10.05;;;5.05;;
46090;SDS011;31826;53.572;10.170;2022-12-08T09:29:08;11.07;;;5.38;;
46090;SDS011;31826;53.572;10.170;2022-12-08T09:31:35;10.02;;;4.63;;
46090;SDS011;31826;53.572;10.170;2022-12-08T09:34:01;10.02;;;5.00;;
46090;SDS011;31826;53.572;10.170;2022-12-08T09:36:29;10.65;;;5.00;;
46090;SDS011;31826;53.572;10.170;2022-12-08T09:38:56;11.40;;;4.90;;
46090;SDS011;31826;53.572;10.170;2022-12-08T09:41:35;10.07;;;4.68;;
46090;SDS011;31826;53.572;10.170;2022-12-08T09:47:29;9.73;;;4.72;;
46090;SDS011;31826;53.572;10.170;2022-12-08T09:58:26;8.90;;;4.20;;
46090;SDS011;31826;53.572;10.170;2022-12-08T10:01:15;10.35;;;4.18;;
46090;SDS011;31826;53.572;10.170;2022-12-08T10:03:43;10.63;;;4.50;;
46090;SDS011;31826;53.572;10.170;2022-12-08T10:06:13;10.43;;;4.97;;
46090;SDS011;31826;53.572;10.170;2022-12-08T10:14:39;7.63;;;3.67;;
46090;SDS011;31826;53.572;10.170;2022-12-08T10:17:41;8.43;;;3.70;;
46090;SDS011;31826;53.572;10.170;2022-12-08T10:20:12;8.68;;;3.92;;
46090;SDS011;31826;53.572;10.170;2022-12-08T10:22:45;9.90;;;3.80;;
46090;SDS011;31826;53.572;10.170;2022-12-08T10:25:30;9.20;;;3.92;;
46090;SDS011;31826;53.572;10.170;2022-12-08T10:28:00;9.52;;;3.90;;
46090;SDS011;31826;53.572;10.170;2022-12-08T10:30:26;9.07;;;4.05;;
46090;SDS011;31826;53.572;10.170;2022-12-08T10:32:52;10.68;;;3.90;;
46090;SDS011;31826;53.572;10.170;2022-12-08T10:35:19;8.15;;;3.70;;
46090;SDS011;31826;53.572;10.170;2022-12-08T10:37:56;10.00;;;3.90;;
46090;SDS011;31826;53.572;10.170;2022-12-08T10:40:26;8.95;;;3.58;;
46090;SDS011;31826;53.572;10.170;2022-12-08T10:42:54;10.68;;;4.57;;
46090;SDS011;31826;53.572;10.170;2022-12-08T10:45:23;11.60;;;4.53;;
46090;SDS011;31826;53.572;10.170;2022-12-08T10:48:25;8.55;;;4.10;;
46090;SDS011;31826;53.572;10.170;2022-12-08T10:50:46;9.98;;;4.43;;
46090;SDS011;31826;53.572;10.170;2022-12-08T10:53:21;11.43;;;4.93;;
46090;SDS011;31826;53.572;10.170;2022-12-08T10:55:52;10.77;;;4.43;;
46090;SDS011;31826;53.572;10.170;2022-12-08T11:01:10;8.65;;;3.72;;
46090;SDS011;31826;53.572;10.170;2022-12-08T11:06:20;10.80;;;4.55;;
46090;SDS011;31826;53.572;10.170;2022-12-08T11:08:55;12.73;;;4.93;;
46090;SDS011;31826;53.572;10.170;2022-12-08T11:11:43;8.57;;;4.27;;
46090;SDS011;31826;53.572;10.170;2022-12-08T11:14:12;10.18;;;4.20;;
46090;SDS011;31826;53.572;10.170;2022-12-08T11:16:46;8.73;;;3.87;;
46090;SDS011;31826;53.572;10.170;2022-12-08T11:19:16;9.23;;;4.05;;
46090;SDS011;31826;53.572;10.170;2022-12-08T11:21:43;7.90;;;3.30;;
46090;SDS011;31826;53.572;10.170;2022-12-08T11:26:38;7.50;;;3.40;;
46090;SDS011;31826;53.572;10.170;2022-12-08T11:29:12;7.13;;;3.45;;
46090;SDS011;31826;53.572;10.170;2022-12-08T11:31:48;8.82;;;3.33;;
46090;SDS011;31826;53.572;10.170;2022-12-08T11:34:35;8.13;;;3.50;;
46090;SDS011;31826;53.572;10.170;2022-12-08T11:37:10;8.10;;;3.65;;
46090;SDS011;31826;53.572;10.170;2022-12-08T11:39:59;7.60;;;3.63;;
46090;SDS011;31826;53.572;10.170;2022-12-08T11:42:31;7.93;;;3.53;;
46090;SDS011;31826;53.572;10.170;2022-12-08T11:45:10;9.10;;;3.67;;
46090;SDS011;31826;53.572;10.170;2022-12-08T11:47:44;6.93;;;3.03;;
46090;SDS011;31826;53.572;10.170;2022-12-08T11:50:21;5.82;;;3.08;;
46090;SDS011;31826;53.572;10.170;2022-12-08T11:52:53;6.77;;;3.00;;
46090;SDS011;31826;53.572;10.170;2022-12-08T11:58:12;6.63;;;3.00;;
46090;SDS011;31826;53.572;10.170;2022-12-08T12:00:57;8.20;;;3.35;;
46090;SDS011;31826;53.572;10.170;2022-12-08T12:03:28;7.20;;;3.40;;
46090;SDS011;31826;53.572;10.170;2022-12-08T12:09:08;6.95;;;3.22;;
46090;SDS011;31826;53.572;10.170;2022-12-08T12:12:15;8.13;;;3.30;;
46090;SDS011;31826;53.572;10.170;2022-12-08T12:18:03;7.55;;;3.42;;
46090;SDS011;31826;53.572;10.170;2022-12-08T12:20:37;7.53;;;3.42;;
46090;SDS011;31826;53.572;10.170;2022-12-08T12:26:07;7.10;;;3.35;;
46090;SDS011;31826;53.572;10.170;2022-12-08T12:28:48;6.90;;;3.13;;
46090;SDS011;31826;53.572;10.170;2022-12-08T12:31:23;7.00;;;3.35;;
46090;SDS011;31826;53.572;10.170;2022-12-08T12:33:52;9.85;;;4.45;;
46090;SDS011;31826;53.572;10.170;2022-12-08T12:36:27;11.40;;;4.95;;
46090;SDS011;31826;53.572;10.170;2022-12-08T12:38:55;9.07;;;4.07;;
46090;SDS011;31826;53.572;10.170;2022-12-08T12:54:44;10.20;;;4.00;;
46090;SDS011;31826;53.572;10.170;2022-12-08T13:10:31;7.68;;;3.60;;
46090;SDS011;31826;53.572;10.170;2022-12-08T13:15:47;8.57;;;4.10;;
46090;SDS011;31826;53.572;10.170;2022-12-08T13:18:36;9.75;;;3.83;;
46090;SDS011;31826;53.572;10.170;2022-12-08T13:21:10;8.90;;;3.65;;
46090;SDS011;31826;53.572;10.170;2022-12-08T13:26:45;9.85;;;4.40;;
46090;SDS011;31826;53.572;10.170;2022-12-08T13:29:22;42.72;;;20.90;;
46090;SDS011;31826;53.572;10.170;2022-12-08T13:34:19;10.00;;;4.53;;
46090;SDS011;31826;53.572;10.170;2022-12-08T13:36:58;8.73;;;4.18;;
46090;SDS011;31826;53.572;10.170;2022-12-08T13:42:28;10.93;;;4.32;;
46090;SDS011;31826;53.572;10.170;2022-12-08T13:47:35;9.57;;;4.47;;
46090;SDS011;31826;53.572;10.170;2022-12-08T13:50:28;7.78;;;3.63;;
46090;SDS011;31826;53.572;10.170;2022-12-08T13:53:02;12.98;;;6.03;;
46090;SDS011;31826;53.572;10.170;2022-12-08T13:55:39;14.13;;;7.13;;
46090;SDS011;31826;53.572;10.170;2022-12-08T13:58:17;21.88;;;11.43;;
46090;SDS011;31826;53.572;10.170;2022-12-08T14:00:59;21.70;;;11.00;;
46090;SDS011;31826;53.572;10.170;2022-12-08T14:03:51;15.73;;;8.00;;
46090;SDS011;31826;53.572;10.170;2022-12-08T14:06:37;16.25;;;6.13;;
46090;SDS011;31826;53.572;10.170;2022-12-08T14:09:06;13.43;;;6.32;;
46090;SDS011;31826;53.572;10.170;2022-12-08T14:11:45;12.70;;;5.35;;
46090;SDS011;31826;53.572;10.170;2022-12-08T14:17:03;11.90;;;5.70;;
46090;SDS011;31826;53.572;10.170;2022-12-08T14:19:31;12.90;;;6.63;;
46090;SDS011;31826;53.572;10.170;2022-12-08T14:21:59;11.10;;;5.65;;
46090;SDS011;31826;53.572;10.170;2022-12-08T14:24:28;11.00;;;5.15;;
46090;SDS011;31826;53.572;10.170;2022-12-08T14:27:02;9.82;;;4.60;;
46090;SDS011;31826;53.572;10.170;2022-12-08T14:37:47;14.38;;;5.10;;
46090;SDS011;31826;53.572;10.170;2022-12-08T14:40:22;12.07;;;5.03;;
46090;SDS011;31826;53.572;10.170;2022-12-08T14:45:33;12.85;;;5.40;;
46090;SDS011;31826;53.572;10.170;2022-12-08T14:48:27;11.10;;;5.00;;
46090;SDS011;31826;53.572;10.170;2022-12-08T14:51:06;20.35;;;9.85;;
46090;SDS011;31826;53.572;10.170;2022-12-08T14:53:41;18.40;;;8.13;;
46090;SDS011;31826;53.572;10.170;2022-12-08T14:56:18;14.93;;;7.10;;
46090;SDS011;31826;53.572;10.170;2022-12-08T15:01:31;13.98;;;6.47;;
46090;SDS011;31826;53.572;10.170;2022-12-08T15:04:08;12.63;;;6.63;;
46090;SDS011;31826;53.572;10.170;2022-12-08T15:09:41;18.20;;;7.80;;
46090;SDS011;31826;53.572;10.170;2022-12-08T15:14:41;24.00;;;10.50;;
46090;SDS011;31826;53.572;10.170;2022-12-08T15:19:55;24.48;;;9.50;;
46090;SDS011;31826;53.572;10.170;2022-12-08T15:22:22;17.80;;;8.50;;
46090;SDS011;31826;53.572;10.170;2022-12-08T15:24:48;23.20;;;10.03;;
46090;SDS011;31826;53.572;10.170;2022-12-08T15:27:15;21.27;;;9.40;;
46090;SDS011;31826;53.572;10.170;2022-12-08T15:29:43;17.88;;;8.70;;
46090;SDS011;31826;53.572;10.170;2022-12-08T15:32:10;15.25;;;7.38;;
46090;SDS011;31826;53.572;10.170;2022-12-08T15:34:36;14.55;;;6.80;;
46090;SDS011;31826;53.572;10.170;2022-12-08T15:37:02;13.68;;;6.47;;
46090;SDS011;31826;53.572;10.170;2022-12-08T15:39:32;16.92;;;8.40;;
46090;SDS011;31826;53.572;10.170;2022-12-08T15:42:00;17.90;;;8.60;;
46090;SDS011;31826;53.572;10.170;2022-12-08T15:44:27;15.65;;;7.00;;
46090;SDS011;31826;53.572;10.170;2022-12-08T15:46:53;12.73;;;6.53;;
46090;SDS011;31826;53.572;10.170;2022-12-08T15:49:20;13.90;;;6.57;;
46090;SDS011;31826;53.572;10.170;2022-12-08T15:51:47;14.07;;;6.90;;
46090;SDS011;31826;53.572;10.170;2022-12-08T15:54:14;15.32;;;6.80;;
46090;SDS011;31826;53.572;10.170;2022-12-08T15:56:43;16.40;;;8.33;;
46090;SDS011;31826;53.572;10.170;2022-12-08T15:59:21;17.63;;;8.57;;
46090;SDS011;31826;53.572;10.170;2022-12-08T16:01:49;15.70;;;7.65;;
46090;SDS011;31826;53.572;10.170;2022-12-08T16:04:16;14.90;;;7.45;;
46090;SDS011;31826;53.572;10.170;2022-12-08T16:06:45;15.52;;;7.70;;
46090;SDS011;31826;53.572;10.170;2022-12-08T16:09:18;17.08;;;7.55;;
46090;SDS011;31826;53.572;10.170;2022-12-08T16:11:52;16.40;;;8.55;;
46090;SDS011;31826;53.572;10.170;2022-12-08T16:14:36;19.73;;;8.98;;
46090;SDS011;31826;53.572;10.170;2022-12-08T16:17:02;19.02;;;9.52;;
46090;SDS011;31826;53.572;10.170;2022-12-08T16:19:28;18.75;;;9.63;;
46090;SDS011;31826;53.572;10.170;2022-12-08T16:21:54;20.73;;;10.07;;
46090;SDS011;31826;53.572;10.170;2022-12-08T16:24:20;21.20;;;10.20;;
46090;SDS011;31826;53.572;10.170;2022-12-08T16:26:46;18.45;;;9.85;;
46090;SDS011;31826;53.572;10.170;2022-12-08T16:29:16;19.17;;;9.35;;
46090;SDS011;31826;53.572;10.170;2022-12-08T16:31:45;17.63;;;8.52;;
46090;SDS011;31826;53.572;10.170;2022-12-08T16:34:11;17.63;;;8.93;;
46090;SDS011;31826;53.572;10.170;2022-12-08T16:36:37;18.23;;;8.68;;
46090;SDS011;31826;53.572;10.170;2022-12-08T16:39:02;19.00;;;8.98;;
46090;SDS011;31826;53.572;10.170;2022-12-08T16:41:28;18.48;;;8.75;;
46090;SDS011;31826;53.572;10.170;2022-12-08T16:44:12;20.38;;;9.15;;
46090;SDS011;31826;53.572;10.170;2022-12-08T16:46:38;17.93;;;8.83;;
46090;SDS011;31826;53.572;10.170;2022-12-08T16:49:05;19.97;;;9.73;;
46090;SDS011;31826;53.572;10.170;2022-12-08T16:51:32;20.50;;;9.48;;